createdAt,value
2018-05-13T00:02:10.901Z,8.43
2018-05-13T00:04:39.150Z,8.40
2018-05-13T00:07:07.429Z,9.97
2018-05-13T00:09:35.850Z,7.20
2018-05-13T00:12:04.228Z,7.27
2018-05-13T00:14:32.489Z,7.57
2018-05-13T00:17:00.966Z,7.70
2018-05-13T00:19:29.229Z,8.03
2018-05-13T00:21:57.503Z,7.93
2018-05-13T00:24:25.770Z,7.60
2018-05-13T00:26:54.203Z,8.80
2018-05-13T00:29:22.571Z,8.10
2018-05-13T00:31:50.838Z,9.83
2018-05-13T00:34:19.090Z,7.33
2018-05-13T00:36:47.355Z,8.40
2018-05-13T00:39:15.643Z,8.20
2018-05-13T00:41:43.894Z,7.23
2018-05-13T00:44:12.159Z,7.67
2018-05-13T00:46:41.214Z,7.90
2018-05-13T00:49:09.590Z,7.90
2018-05-13T00:51:37.857Z,7.90
2018-05-13T00:54:31.689Z,8.00
2018-05-13T00:56:59.956Z,7.50
2018-05-13T00:59:28.299Z,8.00
2018-05-13T01:01:56.678Z,7.20
2018-05-13T01:04:24.990Z,7.37
2018-05-13T01:06:53.254Z,7.57
2018-05-13T01:09:21.515Z,7.17
2018-05-13T01:11:49.776Z,7.57
2018-05-13T01:14:18.956Z,7.07
2018-05-13T01:16:47.262Z,7.43
2018-05-13T01:19:15.532Z,7.67
2018-05-13T01:21:44.015Z,7.40
2018-05-13T01:24:12.279Z,7.43
2018-05-13T01:26:40.778Z,7.63
2018-05-13T01:29:09.048Z,7.63
2018-05-13T01:31:37.466Z,7.03
2018-05-13T01:34:05.772Z,7.40
2018-05-13T01:36:34.025Z,7.00
2018-05-13T01:39:02.294Z,7.07
2018-05-13T01:41:30.751Z,6.93
2018-05-13T01:43:59.016Z,6.83
2018-05-13T01:46:27.281Z,7.90
2018-05-13T01:48:55.554Z,7.63
2018-05-13T01:51:23.957Z,7.17
2018-05-13T01:53:52.213Z,7.17
2018-05-13T01:56:20.726Z,7.70
2018-05-13T01:58:49.123Z,6.67
2018-05-13T02:01:17.372Z,7.60
2018-05-13T02:03:45.642Z,7.30
2018-05-13T02:06:13.929Z,7.57
2018-05-13T02:08:42.298Z,7.00
2018-05-13T02:11:10.690Z,7.33
2018-05-13T02:13:38.959Z,7.20
2018-05-13T02:16:07.265Z,6.87
2018-05-13T02:18:35.518Z,7.07
2018-05-13T02:21:03.895Z,7.43
2018-05-13T02:23:32.260Z,7.20
2018-05-13T02:26:00.594Z,7.37
2018-05-13T02:28:29.019Z,7.17
2018-05-13T02:30:57.352Z,7.13
2018-05-13T02:33:26.376Z,6.90
2018-05-13T02:35:54.785Z,7.00
2018-05-13T02:38:23.056Z,6.90
2018-05-13T02:40:51.328Z,7.23
2018-05-13T02:43:19.610Z,7.20
2018-05-13T02:45:47.861Z,6.80
2018-05-13T02:48:16.475Z,7.43
2018-05-13T02:50:44.724Z,9.97
2018-05-13T02:53:13.121Z,6.17
2018-05-13T02:55:41.439Z,6.77
2018-05-13T02:58:10.475Z,7.23
2018-05-13T03:00:38.772Z,6.93
2018-05-13T03:03:07.037Z,6.80
2018-05-13T03:05:35.329Z,6.67
2018-05-13T03:08:03.665Z,8.93
2018-05-13T03:10:32.081Z,11.00
2018-05-13T03:13:00.361Z,11.27
2018-05-13T03:15:28.626Z,10.97
2018-05-13T03:17:56.910Z,10.83
2018-05-13T03:20:25.338Z,11.07
2018-05-13T03:22:53.680Z,11.90
2018-05-13T03:25:22.019Z,12.90
2018-05-13T03:27:50.306Z,13.10
2018-05-13T03:30:18.806Z,13.53
2018-05-13T03:32:47.215Z,14.57
2018-05-13T03:35:15.498Z,12.80
2018-05-13T03:37:43.967Z,13.70
2018-05-13T03:40:12.237Z,15.53
2018-05-13T03:42:40.723Z,13.87
2018-05-13T03:45:09.003Z,12.97
2018-05-13T03:47:37.321Z,15.50
2018-05-13T03:50:05.598Z,11.53
2018-05-13T03:52:33.870Z,11.07
2018-05-13T03:55:02.323Z,9.43
2018-05-13T03:57:30.587Z,9.77
2018-05-13T03:59:58.896Z,9.73
2018-05-13T04:02:27.145Z,9.30
2018-05-13T04:04:55.504Z,10.23
2018-05-13T04:07:23.864Z,10.60
2018-05-13T04:10:04.941Z,9.90
2018-05-13T04:12:45.027Z,9.90
2018-05-13T04:15:20.224Z,9.93
2018-05-13T04:17:48.532Z,10.67
2018-05-13T04:20:16.791Z,9.67
2018-05-13T04:22:45.190Z,9.60
2018-05-13T04:25:13.581Z,9.20
2018-05-13T04:27:41.863Z,9.37
2018-05-13T04:30:10.326Z,9.43
2018-05-13T04:32:38.594Z,9.57
2018-05-13T04:35:07.075Z,9.63
2018-05-13T04:37:35.340Z,9.47
2018-05-13T04:40:03.593Z,8.63
2018-05-13T04:42:31.921Z,10.73
2018-05-13T04:45:00.173Z,9.10
2018-05-13T04:47:28.696Z,10.00
2018-05-13T04:49:56.967Z,8.33
2018-05-13T04:52:25.446Z,9.10
2018-05-13T04:54:53.689Z,8.73
2018-05-13T04:57:21.973Z,9.10
2018-05-13T04:59:50.236Z,9.13
2018-05-13T05:02:18.548Z,9.07
2018-05-13T05:04:46.834Z,9.33
2018-05-13T05:07:15.086Z,8.67
2018-05-13T05:09:43.354Z,8.57
2018-05-13T05:12:11.846Z,8.83
2018-05-13T05:14:40.119Z,8.33
2018-05-13T05:17:08.378Z,7.90
2018-05-13T05:19:36.687Z,8.43
2018-05-13T05:22:04.977Z,7.87
2018-05-13T05:24:33.387Z,8.27
2018-05-13T05:27:02.426Z,8.17
2018-05-13T05:29:30.684Z,9.10
2018-05-13T05:31:58.950Z,7.73
2018-05-13T05:34:27.218Z,8.83
2018-05-13T05:36:55.481Z,7.60
2018-05-13T05:39:23.750Z,7.97
2018-05-13T05:41:52.008Z,7.97
2018-05-13T05:44:20.303Z,8.07
2018-05-13T05:46:48.619Z,8.20
2018-05-13T05:49:16.885Z,8.30
2018-05-13T05:51:45.913Z,8.37
2018-05-13T05:54:14.185Z,7.97
2018-05-13T05:56:42.599Z,7.60
2018-05-13T05:59:10.864Z,8.70
2018-05-13T06:01:39.145Z,8.33
2018-05-13T06:04:07.417Z,8.03
2018-05-13T06:06:35.674Z,7.80
2018-05-13T06:09:05.802Z,6.97
2018-05-13T06:11:34.065Z,8.40
2018-05-13T06:14:02.359Z,7.63
2018-05-13T06:16:30.652Z,7.43
2018-05-13T06:18:58.940Z,7.87
2018-05-13T06:21:27.346Z,7.50
2018-05-13T06:23:55.794Z,7.40
2018-05-13T06:26:24.058Z,8.03
2018-05-13T06:28:52.525Z,7.17
2018-05-13T06:31:20.783Z,8.13
2018-05-13T06:33:49.293Z,6.67
2018-05-13T06:36:17.554Z,7.17
2018-05-13T06:38:45.825Z,7.60
2018-05-13T06:41:14.093Z,7.53
2018-05-13T06:43:42.485Z,8.17
2018-05-13T06:46:11.586Z,8.00
2018-05-13T06:48:39.870Z,7.23
2018-05-13T06:51:08.147Z,10.83
2018-05-13T06:53:36.442Z,7.87
2018-05-13T06:56:04.717Z,7.17
2018-05-13T06:58:33.038Z,12.40
2018-05-13T07:01:01.304Z,6.87
2018-05-13T07:03:29.597Z,7.20
2018-05-13T07:05:57.846Z,7.17
2018-05-13T07:08:26.874Z,7.80
2018-05-13T07:10:56.107Z,8.03
2018-05-13T07:13:24.412Z,7.00
2018-05-13T07:15:52.691Z,7.13
2018-05-13T07:18:21.025Z,6.97
2018-05-13T07:20:49.290Z,8.00
2018-05-13T07:23:17.792Z,7.00
2018-05-13T07:25:46.057Z,6.83
2018-05-13T07:28:14.355Z,7.37
2018-05-13T07:30:42.606Z,8.03
2018-05-13T07:33:10.878Z,6.87
2018-05-13T07:35:40.881Z,7.87
2018-05-13T07:38:09.294Z,8.30
2018-05-13T07:40:37.571Z,7.07
2018-05-13T07:43:05.847Z,9.70
2018-05-13T07:45:34.986Z,6.43
2018-05-13T07:48:04.012Z,7.23
2018-05-13T07:50:32.278Z,7.57
2018-05-13T07:53:01.158Z,7.67
2018-05-13T07:55:29.713Z,7.37
2018-05-13T07:57:58.057Z,7.17
2018-05-13T08:00:26.242Z,6.40
2018-05-13T08:02:54.611Z,6.63
2018-05-13T08:05:22.870Z,8.03
2018-05-13T08:07:51.144Z,6.63
2018-05-13T08:10:19.410Z,6.57
2018-05-13T08:12:48.548Z,7.10
2018-05-13T08:15:16.714Z,6.47
2018-05-13T08:17:44.991Z,7.33
2018-05-13T08:20:13.323Z,6.70
2018-05-13T08:22:41.896Z,7.10
2018-05-13T08:25:10.933Z,6.47
2018-05-13T08:27:39.199Z,7.23
2018-05-13T08:30:07.459Z,6.40
2018-05-13T08:32:35.781Z,7.97
2018-05-13T08:35:04.053Z,7.20
2018-05-13T08:37:32.538Z,6.93
2018-05-13T08:40:00.936Z,6.27
2018-05-13T08:42:29.279Z,7.10
2018-05-13T08:44:57.536Z,8.27
2018-05-13T08:47:25.827Z,9.83
2018-05-13T08:49:54.098Z,11.07
2018-05-13T08:52:22.519Z,6.90
2018-05-13T08:54:50.878Z,6.63
2018-05-13T08:57:19.190Z,9.70
2018-05-13T08:59:47.630Z,5.97
2018-05-13T09:02:15.902Z,8.87
2018-05-13T09:04:44.420Z,6.33
2018-05-13T09:07:12.782Z,7.23
2018-05-13T09:09:41.048Z,5.97
2018-05-13T09:12:09.361Z,10.33
2018-05-13T09:14:37.615Z,8.77
2018-05-13T09:17:05.920Z,5.73
2018-05-13T09:19:34.325Z,6.90
2018-05-13T09:22:02.591Z,6.50
2018-05-13T09:24:30.859Z,7.07
2018-05-13T09:26:59.235Z,7.73
2018-05-13T09:29:27.583Z,7.60
2018-05-13T09:31:55.834Z,9.67
2018-05-13T09:34:24.133Z,9.53
2018-05-13T09:36:52.389Z,6.03
2018-05-13T09:39:20.659Z,5.57
2018-05-13T09:41:48.928Z,7.23
2018-05-13T09:44:17.254Z,6.53
2018-05-13T09:46:45.550Z,6.63
2018-05-13T09:49:13.894Z,5.63
2018-05-13T09:51:42.159Z,6.57
2018-05-13T09:54:10.550Z,6.67
2018-05-13T09:56:38.823Z,9.00
2018-05-13T09:59:07.155Z,5.47
2018-05-13T10:01:35.604Z,6.97
2018-05-13T10:04:03.959Z,9.00
2018-05-13T10:06:32.349Z,5.00
2018-05-13T10:09:00.614Z,6.40
2018-05-13T10:11:28.901Z,7.70
2018-05-13T10:13:57.193Z,6.30
2018-05-13T10:16:25.465Z,7.40
2018-05-13T10:18:53.931Z,6.40
2018-05-13T10:21:22.200Z,6.67
2018-05-13T10:23:50.695Z,7.00
2018-05-13T10:26:18.962Z,9.70
2018-05-13T10:28:47.230Z,6.10
2018-05-13T10:31:15.495Z,5.90
2018-05-13T10:33:43.762Z,5.77
2018-05-13T10:36:12.023Z,7.07
2018-05-13T10:38:40.306Z,7.63
2018-05-13T10:41:08.747Z,7.07
2018-05-13T10:43:37.114Z,6.47
2018-05-13T10:46:05.536Z,4.37
2018-05-13T10:48:33.858Z,6.07
2018-05-13T10:51:02.253Z,5.13
2018-05-13T10:53:30.510Z,8.13
2018-05-13T10:55:58.799Z,4.63
2018-05-13T10:58:27.370Z,5.03
2018-05-13T11:00:55.629Z,6.30
2018-05-13T11:03:23.890Z,6.90
2018-05-13T11:05:52.210Z,4.57
2018-05-13T11:08:20.502Z,5.60
2018-05-13T11:10:48.770Z,6.07
2018-05-13T11:13:17.046Z,8.10
2018-05-13T11:15:45.316Z,4.40
2018-05-13T11:18:13.569Z,8.30
2018-05-13T11:20:41.922Z,7.50
2018-05-13T11:23:10.146Z,5.47
2018-05-13T11:25:38.829Z,7.83
2018-05-13T11:28:07.338Z,5.77
2018-05-13T11:30:35.762Z,5.00
2018-05-13T11:33:04.024Z,6.77
2018-05-13T11:35:33.053Z,6.73
2018-05-13T11:38:01.332Z,6.43
2018-05-13T11:40:29.834Z,6.27
2018-05-13T11:42:58.098Z,8.03
2018-05-13T11:45:26.606Z,7.00
2018-05-13T11:47:54.976Z,5.80
2018-05-13T11:50:23.238Z,4.93
2018-05-13T11:52:51.501Z,4.40
2018-05-13T11:55:19.777Z,7.83
2018-05-13T11:57:48.047Z,6.40
2018-05-13T12:00:16.322Z,6.10
2018-05-13T12:02:44.597Z,5.67
2018-05-13T12:05:13.017Z,6.27
2018-05-13T12:07:41.373Z,6.30
2018-05-13T12:10:09.762Z,6.10
2018-05-13T12:12:38.016Z,4.80
2018-05-13T12:15:06.319Z,4.33
2018-05-13T12:17:34.562Z,5.73
2018-05-13T12:20:02.846Z,4.83
2018-05-13T12:22:31.356Z,5.40
2018-05-13T12:24:59.628Z,5.63
2018-05-13T12:27:27.891Z,5.17
2018-05-13T12:29:56.154Z,6.00
2018-05-13T12:32:24.562Z,7.03
2018-05-13T12:34:52.832Z,5.07
2018-05-13T12:37:21.101Z,5.63
2018-05-13T12:39:49.391Z,5.07
2018-05-13T12:42:17.657Z,4.30
2018-05-13T12:44:45.931Z,7.47
2018-05-13T12:47:14.222Z,5.97
2018-05-13T12:49:42.481Z,5.57
2018-05-13T12:52:10.748Z,4.63
2018-05-13T12:54:39.006Z,5.03
2018-05-13T12:57:07.280Z,5.43
2018-05-13T12:59:35.549Z,3.93
2018-05-13T13:02:03.896Z,4.00
2018-05-13T13:04:32.157Z,4.07
2018-05-13T13:07:00.646Z,4.47
2018-05-13T13:09:29.013Z,4.00
2018-05-13T13:11:57.354Z,4.97
2018-05-13T13:14:25.609Z,4.40
2018-05-13T13:16:53.878Z,4.07
2018-05-13T13:19:27.941Z,4.30
2018-05-13T13:22:04.448Z,4.80
2018-05-13T13:24:36.530Z,5.30
2018-05-13T13:27:06.586Z,5.70
2018-05-13T13:29:48.971Z,6.93
2018-05-13T13:32:23.237Z,5.93
2018-05-13T13:34:55.916Z,6.13
2018-05-13T13:37:26.702Z,4.50
2018-05-13T13:39:55.046Z,4.60
2018-05-13T13:42:23.313Z,4.57
2018-05-13T13:44:51.590Z,4.73
2018-05-13T13:47:19.909Z,5.13
2018-05-13T13:49:48.231Z,7.90
2018-05-13T13:52:16.491Z,7.27
2018-05-13T13:54:48.692Z,4.10
2018-05-13T13:57:30.634Z,6.70
2018-05-13T14:00:07.433Z,11.10
2018-05-13T14:02:48.037Z,8.33
2018-05-13T14:05:16.484Z,4.33
2018-05-13T14:07:50.958Z,5.10
2018-05-13T14:10:23.248Z,6.03
2018-05-13T14:12:52.509Z,4.63
2018-05-13T14:15:23.713Z,4.70
2018-05-13T14:17:56.939Z,5.67
2018-05-13T14:20:27.429Z,5.27
2018-05-13T14:22:59.444Z,7.37
2018-05-13T14:25:44.485Z,4.83
2018-05-13T14:28:19.705Z,6.37
2018-05-13T14:30:54.812Z,4.27
2018-05-13T14:33:27.281Z,5.43
2018-05-13T14:35:56.090Z,5.17
2018-05-13T14:38:39.329Z,6.13
2018-05-13T14:41:10.695Z,4.87
2018-05-13T14:43:49.845Z,3.93
2018-05-13T14:46:30.699Z,3.90
2018-05-13T14:49:11.363Z,5.43
2018-05-13T14:51:43.400Z,5.13
2018-05-13T14:54:28.782Z,5.70
2018-05-13T14:57:01.916Z,4.17
2018-05-13T14:59:32.997Z,6.70
2018-05-13T15:02:19.279Z,4.90
2018-05-13T15:04:47.640Z,4.67
2018-05-13T15:07:27.573Z,9.43
2018-05-13T15:09:55.840Z,5.27
2018-05-13T15:12:24.356Z,4.63
2018-05-13T15:14:52.618Z,5.53
2018-05-13T15:17:21.119Z,6.57
2018-05-13T15:19:49.388Z,4.47
2018-05-13T15:22:17.787Z,3.80
2018-05-13T15:24:46.064Z,5.13
2018-05-13T15:27:14.345Z,5.20
2018-05-13T15:29:42.598Z,3.63
2018-05-13T15:32:11.084Z,5.07
2018-05-13T15:34:39.458Z,3.90
2018-05-13T15:37:07.852Z,4.13
2018-05-13T15:39:36.117Z,4.63
2018-05-13T15:42:05.210Z,5.27
2018-05-13T15:44:34.442Z,5.77
2018-05-13T15:47:02.891Z,4.00
2018-05-13T15:49:31.153Z,4.93
2018-05-13T15:51:59.687Z,6.37
2018-05-13T15:54:27.949Z,5.40
2018-05-13T15:56:56.363Z,5.97
2018-05-13T15:59:24.635Z,4.27
2018-05-13T16:01:52.886Z,7.13
2018-05-13T16:04:21.181Z,6.17
2018-05-13T16:06:50.214Z,5.00
2018-05-13T16:09:18.620Z,5.20
2018-05-13T16:11:46.870Z,5.80
2018-05-13T16:14:15.169Z,5.10
2018-05-13T16:16:43.425Z,5.63
2018-05-13T16:19:11.908Z,7.40
2018-05-13T16:21:40.792Z,4.37
2018-05-13T16:24:09.067Z,5.77
2018-05-13T16:26:37.337Z,7.47
2018-05-13T16:29:05.631Z,4.47
2018-05-13T16:31:34.050Z,6.07
2018-05-13T16:34:03.089Z,4.57
2018-05-13T16:36:31.425Z,5.80
2018-05-13T16:38:59.690Z,6.23
2018-05-13T16:41:28.138Z,5.40
2018-05-13T16:43:56.455Z,4.40
2018-05-13T16:46:25.653Z,5.20
2018-05-13T16:48:53.922Z,5.90
2018-05-13T16:51:22.294Z,6.33
2018-05-13T16:53:50.561Z,4.90
2018-05-13T16:56:19.025Z,4.73
2018-05-13T16:58:47.291Z,6.10
2018-05-13T17:01:15.582Z,4.97
2018-05-13T17:03:43.842Z,5.37
2018-05-13T17:06:12.241Z,7.23
2018-05-13T17:08:40.514Z,5.10
2018-05-13T17:11:08.772Z,4.47
2018-05-13T17:13:37.196Z,4.73
2018-05-13T17:16:05.510Z,6.50
2018-05-13T17:18:33.745Z,10.57
2018-05-13T17:21:02.012Z,3.83
2018-05-13T17:23:31.053Z,11.87
2018-05-13T17:25:59.305Z,4.50
2018-05-13T17:28:27.596Z,4.43
2018-05-13T17:30:55.858Z,3.73
2018-05-13T17:33:24.148Z,3.70
2018-05-13T17:35:52.490Z,6.67
2018-05-13T17:38:20.758Z,7.03
2018-05-13T17:40:49.037Z,6.87
2018-05-13T17:43:17.332Z,5.33
2018-05-13T17:45:45.588Z,4.60
2018-05-13T17:48:13.863Z,5.87
2018-05-13T17:50:42.162Z,4.93
2018-05-13T17:53:10.418Z,4.80
2018-05-13T17:55:38.689Z,4.93
2018-05-13T17:58:06.959Z,4.17
2018-05-13T18:00:35.241Z,4.10
2018-05-13T18:03:03.618Z,5.23
2018-05-13T18:05:31.854Z,7.87
2018-05-13T18:08:00.187Z,5.27
2018-05-13T18:10:28.688Z,5.47
2018-05-13T18:12:56.946Z,3.77
2018-05-13T18:15:25.201Z,6.53
2018-05-13T18:17:53.718Z,3.83
2018-05-13T18:20:21.979Z,3.57
2018-05-13T18:22:51.970Z,6.07
2018-05-13T18:25:20.381Z,4.90
2018-05-13T18:27:48.648Z,3.90
2018-05-13T18:30:17.155Z,4.30
2018-05-13T18:32:45.447Z,4.13
2018-05-13T18:35:13.696Z,5.57
2018-05-13T18:37:42.721Z,4.10
2018-05-13T18:40:10.993Z,4.97
2018-05-13T18:42:39.257Z,4.50
2018-05-13T18:45:07.563Z,3.87
2018-05-13T18:47:35.817Z,5.00
2018-05-13T18:50:04.084Z,3.63
2018-05-13T18:52:33.159Z,3.50
2018-05-13T18:55:01.441Z,3.83
2018-05-13T18:57:30.114Z,2.97
2018-05-13T18:59:58.378Z,5.20
2018-05-13T19:02:26.638Z,3.80
2018-05-13T19:04:55.290Z,4.97
2018-05-13T19:07:23.736Z,3.73
2018-05-13T19:09:52.143Z,2.83
2018-05-13T19:12:32.065Z,3.90
2018-05-13T19:15:14.809Z,3.53
2018-05-13T19:17:50.701Z,4.23
2018-05-13T19:20:23.318Z,3.03
2018-05-13T19:22:56.402Z,2.97
2018-05-13T19:25:43.583Z,3.30
2018-05-13T19:28:14.008Z,3.17
2018-05-13T19:30:43.048Z,3.60
2018-05-13T19:33:11.334Z,4.30
2018-05-13T19:35:39.741Z,3.20
2018-05-13T19:38:08.199Z,5.40
2018-05-13T19:40:36.454Z,2.77
2018-05-13T19:43:04.728Z,3.03
2018-05-13T19:45:33.058Z,2.90
2018-05-13T19:48:01.325Z,3.80
2018-05-13T19:50:29.589Z,5.07
2018-05-13T19:52:57.883Z,3.47
2018-05-13T19:55:26.154Z,4.03
2018-05-13T19:57:54.426Z,5.10
2018-05-13T20:00:22.718Z,3.10
2018-05-13T20:02:51.086Z,10.40
2018-05-13T20:05:19.459Z,6.13
2018-05-13T20:07:47.705Z,4.17
2018-05-13T20:10:15.991Z,4.33
2018-05-13T20:12:44.261Z,2.43
2018-05-13T20:15:12.538Z,2.87
2018-05-13T20:17:40.800Z,3.97
2018-05-13T20:20:09.128Z,5.40
2018-05-13T20:23:03.954Z,5.97
2018-05-13T20:25:33.120Z,5.27
2018-05-13T20:28:01.326Z,3.63
2018-05-13T20:30:29.645Z,6.33
2018-05-13T20:32:58.790Z,4.53
2018-05-13T20:35:27.058Z,3.13
2018-05-13T20:37:55.426Z,5.77
2018-05-13T20:40:23.687Z,3.47
2018-05-13T20:51:02.262Z,3.50
2018-05-13T20:53:30.513Z,3.33
2018-05-13T20:55:58.787Z,5.30
2018-05-13T20:58:27.058Z,4.97
2018-05-13T21:00:55.324Z,2.93
2018-05-13T21:03:23.611Z,4.17
2018-05-13T21:05:52.114Z,3.17
2018-05-13T21:08:20.487Z,4.50
2018-05-13T21:10:48.763Z,6.73
2018-05-13T21:13:17.018Z,3.40
2018-05-13T21:15:45.292Z,4.63
2018-05-13T21:18:13.705Z,2.47
2018-05-13T21:20:41.968Z,2.40
2018-05-13T21:23:10.388Z,4.53
2018-05-13T21:25:38.650Z,2.83
2018-05-13T21:28:06.917Z,2.77
2018-05-13T21:30:35.186Z,3.40
2018-05-13T21:33:03.450Z,5.53
2018-05-13T21:35:31.723Z,4.27
2018-05-13T21:38:00.134Z,4.23
2018-05-13T21:40:28.449Z,2.60
2018-05-13T21:42:56.934Z,5.30
2018-05-13T21:45:25.202Z,3.17
2018-05-13T21:47:53.676Z,2.57
2018-05-13T21:50:21.963Z,3.90
2018-05-13T21:52:50.417Z,3.93
2018-05-13T21:55:18.682Z,6.03
2018-05-13T21:57:47.021Z,2.57
2018-05-13T22:00:15.225Z,3.27
2018-05-13T22:02:43.493Z,2.50
2018-05-13T22:05:11.754Z,2.40
2018-05-13T22:07:40.061Z,3.03
2018-05-13T22:10:08.320Z,3.30
2018-05-13T22:12:36.610Z,4.20
2018-05-13T22:15:04.902Z,2.97
2018-05-13T22:17:33.396Z,3.67
2018-05-13T22:20:01.562Z,3.47
2018-05-13T22:22:30.027Z,2.10
2018-05-13T22:24:58.305Z,3.07
2018-05-13T22:27:26.786Z,2.33
2018-05-13T22:29:55.052Z,2.40
2018-05-13T22:32:23.486Z,3.47
2018-05-13T22:34:52.523Z,3.90
2018-05-13T22:37:20.855Z,3.77
2018-05-13T22:39:49.202Z,2.43
2018-05-13T22:42:17.467Z,2.23
2018-05-13T22:44:45.770Z,3.27
2018-05-13T22:47:14.014Z,2.90
2018-05-13T22:49:42.295Z,2.60
2018-05-13T22:52:10.574Z,2.10
2018-05-13T22:54:38.827Z,2.33
2018-05-13T22:57:07.097Z,2.37
2018-05-13T22:59:35.371Z,2.00
2018-05-13T23:02:03.650Z,1.90
2018-05-13T23:04:31.909Z,2.23
2018-05-13T23:07:00.170Z,2.70
2018-05-13T23:09:29.207Z,2.87
2018-05-13T23:11:57.614Z,2.37
2018-05-13T23:14:25.887Z,2.83
2018-05-13T23:16:54.157Z,2.60
2018-05-13T23:19:22.457Z,2.70
2018-05-13T23:21:50.831Z,1.63
2018-05-13T23:24:19.086Z,2.20
2018-05-13T23:26:47.361Z,2.33
2018-05-13T23:29:15.659Z,2.10
2018-05-13T23:31:43.914Z,2.23
2018-05-13T23:34:12.401Z,3.60
2018-05-13T23:36:40.664Z,3.70
2018-05-13T23:39:08.997Z,2.20
2018-05-13T23:41:37.266Z,2.53
2018-05-13T23:44:05.617Z,2.53
2018-05-13T23:46:33.906Z,1.90
2018-05-13T23:49:02.306Z,2.00
2018-05-13T23:51:31.395Z,2.70
2018-05-13T23:53:59.614Z,2.13
2018-05-13T23:56:27.886Z,1.60
2018-05-13T23:58:56.148Z,2.20
